Time;durP1;ratioP1;P1;durP2;ratioP2;P2;SDS_P1;SDS_P2;PMS_P1;PMS_P2;Temp;Humidity;BMP_temperature;BMP_pressure;BME280_temperature;BME280_humidity;BME280_pressure;Samples;Min_cycle;Max_cycle;Signal;HPM_P1;HPM_P2
2024/03/14 00:01:45;;;;;;;74.87;32.27;;;;;;;;;;4945279;28;20243;-84
2024/03/14 00:04:16;;;;;;;69.07;33.07;;;;;;;;;;4912247;28;20659;-85
2024/03/14 00:06:46;;;;;;;71.07;33.13;;;;;;;;;;4951568;28;20228;-84
2024/03/14 00:09:12;;;;;;;70.27;32.63;;;;;;;;;;4930103;28;20242;-85
2024/03/14 00:11:40;;;;;;;65.37;32.70;;;;;;;;;;4930949;28;20247;-86
2024/03/14 00:14:06;;;;;;;73.97;32.87;;;;;;;;;;4913826;28;20557;-85
2024/03/14 00:16:32;;;;;;;62.50;31.97;;;;;;;;;;4937997;28;20223;-83
2024/03/14 00:18:59;;;;;;;67.60;32.20;;;;;;;;;;4932144;28;20305;-83
2024/03/14 00:21:28;;;;;;;70.43;33.27;;;;;;;;;;4910976;28;20255;-84
2024/03/14 00:23:54;;;;;;;66.37;31.93;;;;;;;;;;4919080;29;20236;-82
2024/03/14 00:26:19;;;;;;;65.60;33.07;;;;;;;;;;4923638;28;20277;-82
2024/03/14 00:28:47;;;;;;;64.37;31.93;;;;;;;;;;4917016;29;20236;-81
2024/03/14 00:31:15;;;;;;;67.33;31.77;;;;;;;;;;4910000;28;20332;-85
2024/03/14 00:33:40;;;;;;;60.57;31.03;;;;;;;;;;4933106;29;20220;-85
2024/03/14 00:36:14;;;;;;;63.17;32.23;;;;;;;;;;4954850;28;20299;-82
2024/03/14 00:38:42;;;;;;;62.80;31.23;;;;;;;;;;4925256;29;20315;-84
2024/03/14 00:41:14;;;;;;;62.93;31.53;;;;;;;;;;4923541;29;20245;-85
2024/03/14 00:43:42;;;;;;;58.73;31.27;;;;;;;;;;4930121;29;20224;-85
2024/03/14 00:46:12;;;;;;;63.47;32.50;;;;;;;;;;4930942;28;20219;-85
2024/03/14 00:48:40;;;;;;;62.73;32.60;;;;;;;;;;4905733;29;20224;-83
2024/03/14 00:51:12;;;;;;;62.67;32.30;;;;;;;;;;4908107;28;20389;-81
2024/03/14 00:53:42;;;;;;;61.10;32.33;;;;;;;;;;4902591;29;20291;-83
2024/03/14 00:56:13;;;;;;;63.10;32.33;;;;;;;;;;4923410;28;20223;-85
2024/03/14 00:58:41;;;;;;;64.57;33.80;;;;;;;;;;4939697;28;20269;-85
2024/03/14 01:01:07;;;;;;;61.37;32.23;;;;;;;;;;4957916;28;20228;-84
2024/03/14 01:03:33;;;;;;;68.07;32.93;;;;;;;;;;4905481;28;20565;-83
2024/03/14 01:05:58;;;;;;;65.33;32.27;;;;;;;;;;4926190;29;20281;-83
2024/03/14 01:08:26;;;;;;;65.27;32.73;;;;;;;;;;4910293;29;20231;-84
2024/03/14 01:10:52;;;;;;;66.20;33.43;;;;;;;;;;4932887;28;20220;-84
2024/03/14 01:13:18;;;;;;;62.77;33.20;;;;;;;;;;4959706;28;20247;-83
2024/03/14 01:15:44;;;;;;;63.20;32.63;;;;;;;;;;4954625;28;20216;-81
2024/03/14 01:18:12;;;;;;;60.03;31.97;;;;;;;;;;4942576;28;20323;-81
2024/03/14 01:20:40;;;;;;;61.07;32.47;;;;;;;;;;4942486;28;20219;-82
2024/03/14 01:23:07;;;;;;;60.93;31.93;;;;;;;;;;4969301;28;20230;-81
2024/03/14 01:25:37;;;;;;;63.53;32.60;;;;;;;;;;4942187;28;20214;-83
2024/03/14 01:28:03;;;;;;;61.80;32.53;;;;;;;;;;4968550;28;20340;-83
2024/03/14 01:30:28;;;;;;;67.23;33.43;;;;;;;;;;4934463;28;21559;-81
2024/03/14 01:32:54;;;;;;;58.20;32.30;;;;;;;;;;4960961;28;20233;-83
2024/03/14 01:35:19;;;;;;;64.80;33.20;;;;;;;;;;4921077;29;20317;-84
2024/03/14 01:37:47;;;;;;;58.43;32.83;;;;;;;;;;4924123;29;20230;-84
2024/03/14 01:40:15;;;;;;;59.23;32.53;;;;;;;;;;4918798;28;20298;-85
2024/03/14 01:42:46;;;;;;;60.73;33.07;;;;;;;;;;4929919;28;20250;-85
2024/03/14 01:45:17;;;;;;;60.13;33.27;;;;;;;;;;4950258;28;20223;-84
2024/03/14 01:47:47;;;;;;;55.40;32.47;;;;;;;;;;4945908;28;20254;-80
2024/03/14 01:50:14;;;;;;;61.63;33.77;;;;;;;;;;4932879;28;20236;-82
2024/03/14 01:52:42;;;;;;;58.27;32.60;;;;;;;;;;4911812;29;20280;-83
2024/03/14 01:55:10;;;;;;;61.57;33.17;;;;;;;;;;4911112;29;20391;-84
2024/03/14 01:57:35;;;;;;;56.60;32.20;;;;;;;;;;4930578;29;20309;-85
2024/03/14 02:00:04;;;;;;;56.70;32.53;;;;;;;;;;4902315;29;20246;-82
2024/03/14 02:02:40;;;;;;;60.10;33.00;;;;;;;;;;4927396;28;20254;-84
2024/03/14 02:05:18;;;;;;;53.57;32.63;;;;;;;;;;4911976;29;20271;-84
2024/03/14 02:07:45;;;;;;;58.17;33.53;;;;;;;;;;4927183;29;20363;-83
2024/03/14 02:10:14;;;;;;;59.57;33.73;;;;;;;;;;4913063;28;20236;-83
2024/03/14 02:12:40;;;;;;;56.60;32.10;;;;;;;;;;4934761;28;20338;-83
2024/03/14 02:15:08;;;;;;;58.63;32.63;;;;;;;;;;4946347;28;20231;-82
2024/03/14 02:17:36;;;;;;;56.17;32.40;;;;;;;;;;4916861;29;20227;-83
2024/03/14 02:20:04;;;;;;;54.10;32.47;;;;;;;;;;4909278;29;20219;-83
2024/03/14 02:22:29;;;;;;;56.57;33.10;;;;;;;;;;4900387;29;20231;-81
2024/03/14 02:24:55;;;;;;;54.70;32.10;;;;;;;;;;4944291;28;20250;-83
2024/03/14 02:27:22;;;;;;;51.87;31.67;;;;;;;;;;4938565;28;20587;-83
2024/03/14 02:29:47;;;;;;;54.90;32.43;;;;;;;;;;4928186;29;20318;-84
2024/03/14 02:32:13;;;;;;;52.67;31.67;;;;;;;;;;4949894;28;20243;-82
2024/03/14 02:34:38;;;;;;;51.17;32.17;;;;;;;;;;4919452;29;20224;-81
2024/03/14 02:37:04;;;;;;;52.37;32.37;;;;;;;;;;4925770;28;20224;-83
2024/03/14 02:39:32;;;;;;;55.07;33.07;;;;;;;;;;4927765;29;20234;-82
2024/03/14 02:41:59;;;;;;;55.40;31.60;;;;;;;;;;4934936;28;20238;-82
2024/03/14 02:44:25;;;;;;;52.00;31.57;;;;;;;;;;4924684;29;20224;-81
2024/03/14 02:46:50;;;;;;;47.97;31.07;;;;;;;;;;4917629;29;20227;-83
2024/03/14 02:49:19;;;;;;;49.53;31.10;;;;;;;;;;4922216;29;20261;-81
2024/03/14 02:51:47;;;;;;;49.63;31.50;;;;;;;;;;4912952;29;20231;-82
2024/03/14 02:54:16;;;;;;;48.87;31.20;;;;;;;;;;4925596;28;20310;-84
2024/03/14 02:56:47;;;;;;;46.37;31.07;;;;;;;;;;4907067;29;20662;-84
2024/03/14 02:59:20;;;;;;;49.00;31.37;;;;;;;;;;4895492;29;20254;-82
2024/03/14 03:01:47;;;;;;;48.73;31.63;;;;;;;;;;4935716;28;20255;-82
2024/03/14 03:04:18;;;;;;;46.73;29.60;;;;;;;;;;4910394;29;20220;-83
2024/03/14 03:06:48;;;;;;;47.67;31.33;;;;;;;;;;4927232;29;20286;-82
2024/03/14 03:09:15;;;;;;;43.77;29.83;;;;;;;;;;4911233;28;20235;-82
2024/03/14 03:11:41;;;;;;;48.27;30.70;;;;;;;;;;4957250;28;20238;-84
2024/03/14 03:14:09;;;;;;;48.80;30.50;;;;;;;;;;4928956;28;20215;-83
2024/03/14 03:16:37;;;;;;;44.97;30.00;;;;;;;;;;4961696;28;20226;-84
2024/03/14 03:19:05;;;;;;;50.70;31.17;;;;;;;;;;4923565;28;20310;-84
2024/03/14 03:21:31;;;;;;;43.70;28.83;;;;;;;;;;4912900;29;20278;-84
2024/03/14 03:24:02;;;;;;;51.73;31.23;;;;;;;;;;4924932;28;20228;-82
2024/03/14 03:26:28;;;;;;;48.17;31.07;;;;;;;;;;4932103;28;20239;-83
2024/03/14 03:28:56;;;;;;;47.60;30.77;;;;;;;;;;4920142;29;20849;-82
2024/03/14 03:31:21;;;;;;;48.63;30.77;;;;;;;;;;4939920;28;20251;-84
2024/03/14 03:33:47;;;;;;;44.10;29.50;;;;;;;;;;4943089;28;20649;-82
2024/03/14 03:36:14;;;;;;;48.57;30.30;;;;;;;;;;4938974;28;20216;-84
2024/03/14 03:38:39;;;;;;;46.93;30.63;;;;;;;;;;4913346;28;20576;-84
2024/03/14 03:41:09;;;;;;;46.10;30.97;;;;;;;;;;4906801;29;20228;-81
2024/03/14 03:43:38;;;;;;;46.33;30.37;;;;;;;;;;4931141;28;20835;-81
2024/03/14 03:46:06;;;;;;;45.77;30.67;;;;;;;;;;4942937;28;20230;-81
2024/03/14 03:48:41;;;;;;;47.87;31.20;;;;;;;;;;4912390;29;20574;-84
2024/03/14 03:51:07;;;;;;;49.07;31.23;;;;;;;;;;4940161;28;20218;-83
2024/03/14 03:53:32;;;;;;;46.93;31.27;;;;;;;;;;4947242;29;20226;-84
2024/03/14 03:56:04;;;;;;;45.97;30.03;;;;;;;;;;4938414;28;20219;-82
2024/03/14 04:02:18;;;;;;;44.80;31.00;;;;;;;;;;4943787;28;20241;-83
2024/03/14 04:04:47;;;;;;;47.37;30.73;;;;;;;;;;4962237;28;20231;-82
2024/03/14 04:07:14;;;;;;;46.03;31.07;;;;;;;;;;4949180;28;20943;-82
2024/03/14 04:09:45;;;;;;;45.00;30.70;;;;;;;;;;4935440;28;20232;-81
2024/03/14 04:12:11;;;;;;;44.70;29.50;;;;;;;;;;4918187;29;20228;-82
2024/03/14 04:14:40;;;;;;;43.70;30.63;;;;;;;;;;4909756;29;20716;-82
2024/03/14 04:17:18;;;;;;;44.30;29.83;;;;;;;;;;4925631;28;20215;-82
2024/03/14 04:19:46;;;;;;;45.03;29.80;;;;;;;;;;4921600;28;20851;-82
2024/03/14 04:22:14;;;;;;;45.20;30.30;;;;;;;;;;4914514;29;20230;-82
2024/03/14 04:24:42;;;;;;;41.17;29.03;;;;;;;;;;4927632;29;20224;-81
2024/03/14 04:27:07;;;;;;;47.27;30.87;;;;;;;;;;4927563;28;20228;-83
2024/03/14 04:29:35;;;;;;;43.00;29.80;;;;;;;;;;4932102;28;20286;-82
2024/03/14 04:32:00;;;;;;;44.93;30.23;;;;;;;;;;4919835;29;20231;-83
2024/03/14 04:34:27;;;;;;;43.97;30.27;;;;;;;;;;4915976;29;20234;-83
2024/03/14 04:36:56;;;;;;;42.50;28.83;;;;;;;;;;4915991;29;20232;-84
2024/03/14 04:39:23;;;;;;;41.63;29.73;;;;;;;;;;4902335;29;20234;-83
2024/03/14 04:41:52;;;;;;;40.67;29.33;;;;;;;;;;4932531;29;20965;-81
2024/03/14 04:44:19;;;;;;;41.10;29.27;;;;;;;;;;4914858;28;20290;-83
2024/03/14 04:46:44;;;;;;;39.53;29.67;;;;;;;;;;4918696;29;20336;-84
2024/03/14 04:49:10;;;;;;;41.60;29.17;;;;;;;;;;4917329;29;20706;-83
2024/03/14 04:51:36;;;;;;;42.73;29.60;;;;;;;;;;4920860;29;20301;-82
2024/03/14 04:54:03;;;;;;;41.47;29.40;;;;;;;;;;4922170;29;20306;-82
2024/03/14 04:56:31;;;;;;;39.60;29.43;;;;;;;;;;4937568;29;20551;-81
2024/03/14 04:59:01;;;;;;;40.13;29.23;;;;;;;;;;4916499;29;20579;-77
2024/03/14 05:01:29;;;;;;;39.73;28.67;;;;;;;;;;4920967;28;20239;-77
2024/03/14 05:03:57;;;;;;;38.77;27.63;;;;;;;;;;4940070;28;20739;-77
2024/03/14 05:06:27;;;;;;;39.07;28.47;;;;;;;;;;4910213;28;20340;-78
2024/03/14 05:08:54;;;;;;;35.53;26.87;;;;;;;;;;4921183;28;20231;-77
2024/03/14 05:11:21;;;;;;;35.97;26.17;;;;;;;;;;4907047;28;20222;-77
2024/03/14 05:13:56;;;;;;;36.47;27.43;;;;;;;;;;4910029;29;20911;-77
2024/03/14 05:16:22;;;;;;;34.50;26.67;;;;;;;;;;4909957;29;20220;-77
2024/03/14 05:18:48;;;;;;;33.80;27.20;;;;;;;;;;4924934;29;21774;-78
2024/03/14 05:21:15;;;;;;;34.63;26.30;;;;;;;;;;4929764;28;20714;-77
2024/03/14 05:23:45;;;;;;;34.97;26.63;;;;;;;;;;4918335;28;20228;-77
2024/03/14 05:26:13;;;;;;;33.83;27.37;;;;;;;;;;4931824;28;20593;-79
2024/03/14 05:28:41;;;;;;;36.20;27.00;;;;;;;;;;4935150;28;20321;-77
2024/03/14 05:31:09;;;;;;;34.13;26.77;;;;;;;;;;4909835;29;20226;-76
2024/03/14 05:33:35;;;;;;;35.10;26.50;;;;;;;;;;4927406;29;20235;-78
2024/03/14 05:36:01;;;;;;;33.77;26.37;;;;;;;;;;4929720;29;20224;-78
2024/03/14 05:38:27;;;;;;;32.80;26.03;;;;;;;;;;4928605;28;20251;-78
2024/03/14 05:40:52;;;;;;;35.30;26.33;;;;;;;;;;4938134;28;20329;-78
2024/03/14 05:43:19;;;;;;;34.43;25.70;;;;;;;;;;4926345;28;20227;-79
2024/03/14 05:45:47;;;;;;;34.27;26.20;;;;;;;;;;4913693;29;20720;-79
2024/03/14 05:48:15;;;;;;;33.13;25.20;;;;;;;;;;4932769;28;20303;-78
2024/03/14 05:50:42;;;;;;;33.53;26.37;;;;;;;;;;4926321;28;20295;-79
2024/03/14 05:53:07;;;;;;;35.13;26.53;;;;;;;;;;4926901;28;20223;-78
2024/03/14 05:55:36;;;;;;;32.43;26.17;;;;;;;;;;4928125;28;20868;-79
2024/03/14 05:58:01;;;;;;;30.47;25.20;;;;;;;;;;4925477;29;20222;-79
2024/03/14 06:00:30;;;;;;;33.00;25.47;;;;;;;;;;4953218;28;20219;-79
2024/03/14 06:02:56;;;;;;;30.93;24.50;;;;;;;;;;4904344;29;20763;-78
2024/03/14 06:05:27;;;;;;;30.77;25.37;;;;;;;;;;4916906;29;20230;-78
2024/03/14 06:07:55;;;;;;;31.30;25.10;;;;;;;;;;4933373;28;20243;-78
2024/03/14 06:10:23;;;;;;;32.20;25.53;;;;;;;;;;4919686;28;20220;-79
2024/03/14 06:12:48;;;;;;;31.13;24.27;;;;;;;;;;4927784;29;20316;-79
2024/03/14 06:15:17;;;;;;;28.83;24.17;;;;;;;;;;4938101;28;20256;-79
2024/03/14 06:17:43;;;;;;;30.90;24.50;;;;;;;;;;4926709;28;20818;-78
2024/03/14 06:20:11;;;;;;;28.17;22.97;;;;;;;;;;4925507;28;20224;-78
2024/03/14 06:22:39;;;;;;;28.30;24.27;;;;;;;;;;4945081;28;20277;-78
2024/03/14 06:25:10;;;;;;;30.50;23.67;;;;;;;;;;4945972;28;20220;-77
2024/03/14 06:27:39;;;;;;;28.93;23.77;;;;;;;;;;4927644;28;20330;-79
2024/03/14 06:30:09;;;;;;;30.07;24.10;;;;;;;;;;4889734;28;20223;-78
2024/03/14 06:32:40;;;;;;;27.07;23.13;;;;;;;;;;4931038;29;20322;-78
2024/03/14 06:35:08;;;;;;;25.40;22.70;;;;;;;;;;4921201;29;20269;-78
2024/03/14 06:37:35;;;;;;;27.63;22.97;;;;;;;;;;4929647;29;20802;-80
2024/03/14 06:40:06;;;;;;;26.87;23.17;;;;;;;;;;4929446;29;20226;-79
2024/03/14 06:42:34;;;;;;;26.30;22.63;;;;;;;;;;4945026;28;20290;-79
2024/03/14 06:45:03;;;;;;;25.37;22.60;;;;;;;;;;4927120;28;20215;-79
2024/03/14 06:47:34;;;;;;;27.30;22.33;;;;;;;;;;4932278;28;20317;-79
2024/03/14 06:50:03;;;;;;;24.40;21.50;;;;;;;;;;4913782;29;20216;-79
2024/03/14 06:52:29;;;;;;;24.30;21.40;;;;;;;;;;4909372;29;20283;-78
2024/03/14 06:54:54;;;;;;;25.03;22.00;;;;;;;;;;4935479;28;20227;-79
2024/03/14 06:57:20;;;;;;;24.50;21.90;;;;;;;;;;4906972;28;20603;-78
2024/03/14 06:59:52;;;;;;;22.83;20.33;;;;;;;;;;4920736;28;20262;-78
2024/03/14 07:02:23;;;;;;;24.70;20.77;;;;;;;;;;4913463;29;20600;-78
2024/03/14 07:04:49;;;;;;;23.80;20.63;;;;;;;;;;4907026;29;20231;-78
2024/03/14 07:07:20;;;;;;;22.63;20.23;;;;;;;;;;4928314;28;20223;-79
2024/03/14 07:09:48;;;;;;;22.57;20.13;;;;;;;;;;4936478;28;20231;-78
2024/03/14 07:12:15;;;;;;;22.53;20.17;;;;;;;;;;4927220;28;20212;-78
2024/03/14 07:14:41;;;;;;;22.20;19.80;;;;;;;;;;4922917;28;20238;-77
2024/03/14 07:17:09;;;;;;;21.33;19.13;;;;;;;;;;4923932;28;20227;-79
2024/03/14 07:19:37;;;;;;;23.03;20.67;;;;;;;;;;4931966;28;20241;-78
2024/03/14 07:22:03;;;;;;;22.50;20.17;;;;;;;;;;4938300;28;20226;-78
2024/03/14 07:24:28;;;;;;;22.80;19.90;;;;;;;;;;4940010;28;20239;-78
2024/03/14 07:26:54;;;;;;;21.67;19.50;;;;;;;;;;4938728;28;20230;-78
2024/03/14 07:29:22;;;;;;;20.73;18.53;;;;;;;;;;4928017;29;20251;-78
2024/03/14 07:31:53;;;;;;;21.30;19.07;;;;;;;;;;4952907;28;20228;-78
2024/03/14 07:34:24;;;;;;;20.87;18.73;;;;;;;;;;4919985;28;20231;-79
2024/03/14 07:36:56;;;;;;;21.97;19.70;;;;;;;;;;4910516;29;20235;-79
2024/03/14 07:39:25;;;;;;;21.83;19.10;;;;;;;;;;4935919;28;20215;-79
2024/03/14 07:41:52;;;;;;;20.63;18.17;;;;;;;;;;4928037;28;20226;-78
2024/03/14 07:44:18;;;;;;;20.60;18.50;;;;;;;;;;4927466;28;20231;-77
2024/03/14 07:46:44;;;;;;;19.83;17.77;;;;;;;;;;4943477;28;20239;-78
2024/03/14 07:49:09;;;;;;;20.63;17.63;;;;;;;;;;4925252;28;20319;-78
2024/03/14 07:51:35;;;;;;;19.80;17.80;;;;;;;;;;4932633;28;20236;-79
2024/03/14 07:54:11;;;;;;;19.70;17.60;;;;;;;;;;4911675;29;20237;-79
2024/03/14 07:56:39;;;;;;;18.87;16.90;;;;;;;;;;4925831;28;20226;-79
2024/03/14 07:59:07;;;;;;;18.30;16.40;;;;;;;;;;4915896;28;20223;-79
2024/03/14 08:01:35;;;;;;;18.00;16.03;;;;;;;;;;4956490;28;20727;-79
2024/03/14 08:04:04;;;;;;;17.87;15.70;;;;;;;;;;4929751;28;20219;-79
2024/03/14 08:06:31;;;;;;;17.43;15.80;;;;;;;;;;4929072;28;20235;-78
2024/03/14 08:09:01;;;;;;;17.13;15.40;;;;;;;;;;4937288;28;20242;-80
2024/03/14 08:11:27;;;;;;;17.90;15.50;;;;;;;;;;4932463;28;20223;-79
2024/03/14 08:14:00;;;;;;;16.80;15.20;;;;;;;;;;4905886;29;20226;-80
2024/03/14 08:16:27;;;;;;;15.87;14.47;;;;;;;;;;4946898;28;20280;-77
2024/03/14 08:18:52;;;;;;;16.63;14.93;;;;;;;;;;4925224;28;20392;-78
2024/03/14 08:21:18;;;;;;;16.67;14.87;;;;;;;;;;4916863;29;20313;-79
2024/03/14 08:23:47;;;;;;;16.47;14.53;;;;;;;;;;4908941;29;20881;-79
2024/03/14 08:26:13;;;;;;;16.07;14.50;;;;;;;;;;4935103;28;20231;-78
2024/03/14 08:28:41;;;;;;;16.17;14.53;;;;;;;;;;4925513;29;20235;-79
2024/03/14 08:31:14;;;;;;;15.37;13.90;;;;;;;;;;4954349;28;20255;-78
2024/03/14 08:33:50;;;;;;;15.55;14.05;;;;;;;;;;4927545;29;20331;-79
2024/03/14 08:36:15;;;;;;;14.77;13.23;;;;;;;;;;4929301;28;20219;-78
2024/03/14 08:38:44;;;;;;;14.77;13.40;;;;;;;;;;4905524;29;20234;-78
2024/03/14 08:41:13;;;;;;;14.07;12.67;;;;;;;;;;4924312;28;20235;-79
2024/03/14 08:43:40;;;;;;;14.80;13.30;;;;;;;;;;4938497;28;20256;-77
2024/03/14 08:46:06;;;;;;;14.35;12.88;;;;;;;;;;4922973;29;20227;-78
2024/03/14 08:48:33;;;;;;;13.80;12.40;;;;;;;;;;4941627;28;20768;-80
2024/03/14 08:51:00;;;;;;;13.53;12.23;;;;;;;;;;4904498;29;20250;-77
2024/03/14 08:53:36;;;;;;;13.85;12.45;;;;;;;;;;4921421;28;20653;-80
2024/03/14 08:56:07;;;;;;;13.50;12.23;;;;;;;;;;4925950;29;20287;-76
2024/03/14 08:58:33;;;;;;;13.33;12.03;;;;;;;;;;4937017;28;20226;-78
2024/03/14 09:00:59;;;;;;;13.17;11.83;;;;;;;;;;4950539;28;20321;-79
2024/03/14 09:03:27;;;;;;;12.30;11.10;;;;;;;;;;4925665;28;20250;-78
2024/03/14 09:05:55;;;;;;;12.88;11.68;;;;;;;;;;4912152;29;20219;-77
2024/03/14 09:08:24;;;;;;;12.38;11.15;;;;;;;;;;4898244;29;20224;-78
2024/03/14 09:10:53;;;;;;;12.57;11.35;;;;;;;;;;4922830;29;20220;-76
2024/03/14 09:13:20;;;;;;;12.63;11.32;;;;;;;;;;4901916;28;20233;-77
2024/03/14 09:15:50;;;;;;;12.07;10.80;;;;;;;;;;4947763;28;20231;-77
2024/03/14 09:18:17;;;;;;;10.93;10.00;;;;;;;;;;4923266;28;20219;-78
2024/03/14 09:20:44;;;;;;;11.55;10.35;;;;;;;;;;4929352;29;20976;-76
2024/03/14 09:23:16;;;;;;;11.45;10.30;;;;;;;;;;4918014;28;20248;-76
2024/03/14 09:25:41;;;;;;;11.73;10.52;;;;;;;;;;4943889;28;20231;-78
2024/03/14 09:28:08;;;;;;;10.85;9.85;;;;;;;;;;4915982;28;20239;-78
2024/03/14 09:30:36;;;;;;;11.68;9.73;;;;;;;;;;4908466;29;20235;-77
2024/03/14 09:33:01;;;;;;;11.32;10.23;;;;;;;;;;4893174;29;20239;-77
2024/03/14 09:35:27;;;;;;;10.95;9.82;;;;;;;;;;4949611;28;20228;-78
2024/03/14 09:37:55;;;;;;;11.38;9.98;;;;;;;;;;4898798;29;20223;-78
2024/03/14 09:40:23;;;;;;;11.00;9.88;;;;;;;;;;4913249;28;20223;-78
2024/03/14 09:42:58;;;;;;;9.95;8.95;;;;;;;;;;4922261;29;20319;-78
2024/03/14 09:45:26;;;;;;;10.57;9.48;;;;;;;;;;4947562;28;20238;-78
2024/03/14 09:47:51;;;;;;;10.13;9.23;;;;;;;;;;4907706;29;20240;-77
2024/03/14 09:50:20;;;;;;;10.20;9.15;;;;;;;;;;4935159;28;20534;-77
2024/03/14 09:52:49;;;;;;;9.63;8.82;;;;;;;;;;4916105;28;20800;-77
2024/03/14 09:55:15;;;;;;;9.98;8.82;;;;;;;;;;4921774;28;20324;-78
2024/03/14 09:57:44;;;;;;;9.48;8.57;;;;;;;;;;4921030;28;20709;-78
2024/03/14 10:00:13;;;;;;;8.77;7.97;;;;;;;;;;4918253;28;20297;-78
2024/03/14 10:02:41;;;;;;;8.18;7.38;;;;;;;;;;4936539;28;20232;-78
2024/03/14 10:05:11;;;;;;;8.35;7.55;;;;;;;;;;4904224;28;20735;-79
2024/03/14 10:07:42;;;;;;;7.57;6.85;;;;;;;;;;4926652;29;20239;-78
2024/03/14 10:10:10;;;;;;;7.35;6.63;;;;;;;;;;4884261;29;20228;-78
2024/03/14 10:12:38;;;;;;;7.20;6.50;;;;;;;;;;4898610;29;20792;-77
2024/03/14 10:15:12;;;;;;;7.10;6.40;;;;;;;;;;4894172;29;20767;-78
2024/03/14 10:17:48;;;;;;;6.22;5.63;;;;;;;;;;4916971;29;20247;-81
2024/03/14 10:20:15;;;;;;;6.40;4.88;;;;;;;;;;4917692;28;20245;-78
2024/03/14 10:22:48;;;;;;;5.68;5.05;;;;;;;;;;4956160;28;20231;-78
2024/03/14 10:25:16;;;;;;;5.55;5.05;;;;;;;;;;4939228;28;20232;-78
2024/03/14 10:27:47;;;;;;;5.65;5.03;;;;;;;;;;4909833;29;20236;-79
2024/03/14 10:30:14;;;;;;;5.25;4.75;;;;;;;;;;4924154;28;20227;-78
2024/03/14 10:32:39;;;;;;;5.10;4.60;;;;;;;;;;4927289;28;20255;-78
2024/03/14 10:35:10;;;;;;;5.95;4.65;;;;;;;;;;4944200;28;20277;-78
2024/03/14 10:37:39;;;;;;;6.13;5.13;;;;;;;;;;4907907;29;20755;-78
2024/03/14 10:40:29;;;;;;;4.10;3.70;;;;;;;;;;4889803;28;20244;-78
2024/03/14 10:42:55;;;;;;;4.10;3.70;;;;;;;;;;4916799;29;20242;-78
2024/03/14 10:45:24;;;;;;;4.45;4.05;;;;;;;;;;4903507;28;20224;-77
2024/03/14 10:47:50;;;;;;;5.03;4.53;;;;;;;;;;4910408;29;20264;-77
2024/03/14 10:50:19;;;;;;;6.57;4.68;;;;;;;;;;4949367;28;20685;-78
2024/03/14 10:52:49;;;;;;;6.45;5.10;;;;;;;;;;4907215;29;20250;-77
2024/03/14 10:55:18;;;;;;;5.15;4.65;;;;;;;;;;4937613;28;20232;-77
2024/03/14 10:57:46;;;;;;;3.58;3.17;;;;;;;;;;4918082;29;20223;-77
2024/03/14 11:00:17;;;;;;;3.30;3.00;;;;;;;;;;4907667;28;20229;-78
2024/03/14 11:02:49;;;;;;;4.65;3.20;;;;;;;;;;4908236;29;20386;-78
2024/03/14 11:05:17;;;;;;;4.78;3.85;;;;;;;;;;4909255;29;20230;-77
2024/03/14 11:07:43;;;;;;;4.30;3.90;;;;;;;;;;4924449;28;20286;-77
2024/03/14 11:10:31;;;;;;;5.57;4.40;;;;;;;;;;4917245;28;20238;-78
2024/03/14 11:13:21;;;;;;;4.80;4.40;;;;;;;;;;4924560;29;20721;-79
2024/03/14 11:15:46;;;;;;;4.53;3.90;;;;;;;;;;4950800;28;20234;-79
2024/03/14 11:18:16;;;;;;;4.90;4.18;;;;;;;;;;4932822;28;20233;-78
2024/03/14 11:20:49;;;;;;;6.07;4.43;;;;;;;;;;4897050;29;20264;-78
2024/03/14 11:23:18;;;;;;;4.88;4.10;;;;;;;;;;4906515;28;20644;-77
2024/03/14 11:25:47;;;;;;;4.13;3.33;;;;;;;;;;4891451;29;20232;-77
2024/03/14 11:28:15;;;;;;;3.70;3.40;;;;;;;;;;4926623;29;20227;-78
2024/03/14 11:30:57;;;;;;;3.78;3.38;;;;;;;;;;4916080;28;20337;-78
2024/03/14 11:33:28;;;;;;;3.10;2.80;;;;;;;;;;4928580;28;20650;-77
2024/03/14 11:36:00;;;;;;;3.60;2.60;;;;;;;;;;4919589;28;20227;-78
2024/03/14 11:38:28;;;;;;;2.75;2.22;;;;;;;;;;4923225;28;20776;-77
2024/03/14 11:40:54;;;;;;;3.13;2.40;;;;;;;;;;4932780;28;20226;-78
2024/03/14 11:43:23;;;;;;;2.30;2.10;;;;;;;;;;4899650;29;20223;-80
2024/03/14 11:45:54;;;;;;;2.97;2.67;;;;;;;;;;4892384;29;20235;-78
2024/03/14 11:48:23;;;;;;;3.90;2.78;;;;;;;;;;4954428;28;20223;-79
2024/03/14 11:50:53;;;;;;;3.60;3.10;;;;;;;;;;4922053;29;20220;-80
2024/03/14 11:53:20;;;;;;;3.05;2.65;;;;;;;;;;4934225;28;20232;-79
2024/03/14 11:55:55;;;;;;;2.50;2.30;;;;;;;;;;4930519;28;20235;-79
2024/03/14 11:58:20;;;;;;;3.17;2.45;;;;;;;;;;4941186;28;20223;-79
2024/03/14 12:00:52;;;;;;;2.97;2.67;;;;;;;;;;4944281;28;20311;-79
2024/03/14 12:03:22;;;;;;;2.95;2.75;;;;;;;;;;4943305;28;20630;-78
2024/03/14 12:06:25;;;;;;;3.53;3.10;;;;;;;;;;4933135;28;20232;-78
2024/03/14 12:08:53;;;;;;;3.45;3.10;;;;;;;;;;4934158;28;20235;-77
2024/03/14 12:11:20;;;;;;;5.20;3.10;;;;;;;;;;4935212;28;20232;-78
2024/03/14 12:13:49;;;;;;;3.53;3.22;;;;;;;;;;4901185;29;20231;-79
2024/03/14 12:16:17;;;;;;;3.70;3.15;;;;;;;;;;4928126;28;20223;-77
2024/03/14 12:18:46;;;;;;;3.47;3.17;;;;;;;;;;4944001;28;20259;-79
2024/03/14 12:21:12;;;;;;;3.60;3.20;;;;;;;;;;4922451;29;20239;-78
2024/03/14 12:23:41;;;;;;;3.65;3.15;;;;;;;;;;4910972;29;20513;-79
2024/03/14 12:26:12;;;;;;;4.60;3.35;;;;;;;;;;4925354;28;20305;-76
2024/03/14 12:28:38;;;;;;;4.13;3.67;;;;;;;;;;4909406;29;20234;-78
2024/03/14 12:31:04;;;;;;;3.60;3.30;;;;;;;;;;4918627;28;20759;-78
2024/03/14 12:33:30;;;;;;;3.50;3.20;;;;;;;;;;4926639;28;20225;-77
2024/03/14 12:35:55;;;;;;;3.22;2.72;;;;;;;;;;4924360;29;20225;-77
2024/03/14 12:38:24;;;;;;;4.95;3.67;;;;;;;;;;4924355;28;20707;-79
2024/03/14 12:40:53;;;;;;;3.95;3.38;;;;;;;;;;4889303;29;20286;-78
2024/03/14 12:43:19;;;;;;;5.25;4.03;;;;;;;;;;4896056;28;20231;-78
2024/03/14 12:45:45;;;;;;;3.88;3.50;;;;;;;;;;4913613;28;20227;-79
2024/03/14 12:48:16;;;;;;;3.58;2.80;;;;;;;;;;4939846;29;20234;-79
2024/03/14 12:50:45;;;;;;;4.13;3.60;;;;;;;;;;4937879;29;20697;-79
2024/03/14 12:53:15;;;;;;;4.20;3.80;;;;;;;;;;4930308;28;20227;-77
2024/03/14 12:55:55;;;;;;;3.65;3.15;;;;;;;;;;4899606;29;20239;-77
2024/03/14 12:58:21;;;;;;;5.00;3.83;;;;;;;;;;4923865;29;21033;-76
2024/03/14 13:00:58;;;;;;;4.97;3.97;;;;;;;;;;4924828;28;20219;-78
2024/03/14 13:03:24;;;;;;;4.22;3.83;;;;;;;;;;4908082;28;20243;-78
2024/03/14 13:05:55;;;;;;;4.97;4.15;;;;;;;;;;4919980;29;20224;-78
2024/03/14 13:08:22;;;;;;;4.47;4.07;;;;;;;;;;4912880;29;20236;-78
2024/03/14 13:10:48;;;;;;;4.53;3.60;;;;;;;;;;4893013;29;20251;-78
2024/03/14 13:13:14;;;;;;;5.15;3.92;;;;;;;;;;4930499;29;20231;-79
2024/03/14 13:15:41;;;;;;;5.35;4.10;;;;;;;;;;4927270;29;20223;-78
2024/03/14 13:18:26;;;;;;;5.05;3.97;;;;;;;;;;4943169;28;20269;-77
2024/03/14 13:20:57;;;;;;;4.13;3.75;;;;;;;;;;4936081;28;20234;-78
2024/03/14 13:23:26;;;;;;;4.90;3.90;;;;;;;;;;4915173;28;20251;-78
2024/03/14 13:25:54;;;;;;;4.05;3.65;;;;;;;;;;4927494;28;20269;-78
2024/03/14 13:28:24;;;;;;;4.07;3.65;;;;;;;;;;4928872;28;20317;-78
2024/03/14 13:30:50;;;;;;;4.53;3.63;;;;;;;;;;4930817;28;20317;-78
2024/03/14 13:33:16;;;;;;;4.03;3.20;;;;;;;;;;4928124;28;20266;-79
2024/03/14 13:35:41;;;;;;;3.30;3.00;;;;;;;;;;4894080;29;20293;-79
2024/03/14 13:38:07;;;;;;;4.15;3.75;;;;;;;;;;4921279;29;20247;-78
2024/03/14 13:40:35;;;;;;;3.80;3.50;;;;;;;;;;4917002;29;20269;-77
2024/03/14 13:43:06;;;;;;;3.75;3.40;;;;;;;;;;4939031;28;20230;-78
2024/03/14 13:45:43;;;;;;;3.78;3.47;;;;;;;;;;4911863;28;20297;-78
2024/03/14 13:48:11;;;;;;;3.67;3.38;;;;;;;;;;4930342;29;20294;-78
2024/03/14 13:50:39;;;;;;;4.15;3.80;;;;;;;;;;4925242;29;20777;-79
2024/03/14 13:53:05;;;;;;;3.80;3.50;;;;;;;;;;4909597;28;20242;-79
2024/03/14 13:55:33;;;;;;;3.45;3.25;;;;;;;;;;4936389;29;20579;-77
2024/03/14 13:58:01;;;;;;;3.90;3.60;;;;;;;;;;4913248;29;20322;-78
2024/03/14 14:00:29;;;;;;;3.42;3.13;;;;;;;;;;4939911;28;20238;-78
2024/03/14 14:02:57;;;;;;;3.33;3.03;;;;;;;;;;4925858;29;20263;-77
2024/03/14 14:05:25;;;;;;;4.45;3.50;;;;;;;;;;4922997;28;21920;-77
2024/03/14 14:08:00;;;;;;;3.72;3.35;;;;;;;;;;4923212;29;20239;-77
2024/03/14 14:10:28;;;;;;;3.80;3.50;;;;;;;;;;4938741;28;20309;-78
2024/03/14 14:12:54;;;;;;;4.03;3.63;;;;;;;;;;4906035;29;20219;-77
2024/03/14 14:15:20;;;;;;;4.05;3.65;;;;;;;;;;4942199;28;20336;-78
2024/03/14 14:17:48;;;;;;;3.58;3.28;;;;;;;;;;4929582;28;20219;-78
2024/03/14 14:20:17;;;;;;;4.05;3.75;;;;;;;;;;4925921;28;20219;-78
2024/03/14 14:22:45;;;;;;;5.28;4.00;;;;;;;;;;4935934;28;20712;-77
2024/03/14 14:25:13;;;;;;;5.00;4.30;;;;;;;;;;4921107;28;20248;-78
2024/03/14 14:27:43;;;;;;;4.30;3.90;;;;;;;;;;4954543;28;20290;-79
2024/03/14 14:30:24;;;;;;;4.68;4.28;;;;;;;;;;4928504;28;20287;-78
2024/03/14 14:32:53;;;;;;;4.40;4.00;;;;;;;;;;4933921;29;20424;-77
2024/03/14 14:35:22;;;;;;;4.30;3.90;;;;;;;;;;4908623;28;20658;-78
2024/03/14 14:37:47;;;;;;;3.80;3.50;;;;;;;;;;4914605;29;20689;-79